This is the latest recevied weather packets stored in our database for station/object N4TLC. If no packets are shown the sender has not sent any weather packets the latest 1 day(s).
| Time | Temp. | Humidity | Pressure | Rain* | Wind** | Luminosity | Snow |
|---|---|---|---|---|---|---|---|
| 1778032356 | 21.11° C | 46% | 1016.3 hPa | 0 mm | - | 0 W/m² | - |
| 1778032052 | 21.11° C | 46% | 1016 hPa | 0 mm | - | 0 W/m² | - |
| 1778031749 | 21.11° C | 46% | 1016 hPa | 0 mm | - | 0 W/m² | - |
| 1778031446 | 21.67° C | 45% | 1016.1 hPa | 0 mm | - | 0 W/m² | - |
| 1778031143 | 21.67° C | 45% | 1016.1 hPa | 0 mm | - | 0 W/m² | - |
| 1778030234 | 21.67° C | 44% | 1016 hPa | 0 mm | - | 0 W/m² | - |
| 1778029930 | 21.67° C | 44% | 1015.9 hPa | 0 mm | - | 0 W/m² | - |
| 1778029629 | 22.22° C | 44% | 1015.9 hPa | 0 mm | - | 0 W/m² | - |
| 1778029326 | 22.22° C | 43% | 1015.8 hPa | 0 mm | - | 0 W/m² | - |
| 1778028719 | 22.22° C | 42% | 1015.8 hPa | 0 mm | - | 0 W/m² | - |
| 1778028415 | 22.78° C | 42% | 1015.7 hPa | 0 mm | - | 0 W/m² | - |
| 1778028113 | 22.78° C | 42% | 1015.6 hPa | 0 mm | - | 0 W/m² | - |
| 1778027809 | 22.78° C | 42% | 1015.7 hPa | 0 mm | - | 0 W/m² | - |
| 1778027201 | 22.78° C | 41% | 1015.5 hPa | 0 mm | - | 0 W/m² | - |
| 1778026593 | 23.33° C | 40% | 1015.4 hPa | 0 mm | - | 2 W/m² | - |
| 1778026291 | 23.33° C | 40% | 1015.6 hPa | 0 mm | - | 4 W/m² | - |
| 1778024474 | 24.44° C | 36% | 1015.4 hPa | 0 mm | - | 24 W/m² | - |
| 1778023264 | 25.56° C | 34% | 1015.1 hPa | 0 mm | - | 53 W/m² | - |
| 1778020840 | 26.67° C | 31% | 1015.1 hPa | 0 mm | - | 171 W/m² | - |
| 1778020537 | 26.11° C | 32% | 1014.9 hPa | 0 mm | - | 211 W/m² | - |
* Rain latest hour (hover to see other rain measurements)
** Current wind speed in m/s (hover to see current wind gust speed)